sensor_id;sensor_type;location;lat;lon;timestamp;P1;durP1;ratioP1;P2;durP2;ratioP2
48751;SDS011;34544;48.836;9.174;2022-12-15T00:00:10;45.55;;;27.45;;
48751;SDS011;34544;48.836;9.174;2022-12-15T00:02:55;47.13;;;26.25;;
48751;SDS011;34544;48.836;9.174;2022-12-15T00:05:39;48.15;;;28.10;;
48751;SDS011;34544;48.836;9.174;2022-12-15T00:08:24;51.67;;;27.98;;
48751;SDS011;34544;48.836;9.174;2022-12-15T00:11:08;49.97;;;26.25;;
48751;SDS011;34544;48.836;9.174;2022-12-15T00:13:53;41.72;;;26.23;;
48751;SDS011;34544;48.836;9.174;2022-12-15T00:16:37;53.95;;;27.73;;
48751;SDS011;34544;48.836;9.174;2022-12-15T00:19:22;50.10;;;27.63;;
48751;SDS011;34544;48.836;9.174;2022-12-15T00:22:06;44.22;;;26.55;;
48751;SDS011;34544;48.836;9.174;2022-12-15T00:24:50;47.05;;;27.08;;
48751;SDS011;34544;48.836;9.174;2022-12-15T00:27:35;47.55;;;25.65;;
48751;SDS011;34544;48.836;9.174;2022-12-15T00:30:19;42.70;;;27.35;;
48751;SDS011;34544;48.836;9.174;2022-12-15T00:33:06;45.08;;;26.95;;
48751;SDS011;34544;48.836;9.174;2022-12-15T00:35:52;49.28;;;29.42;;
48751;SDS011;34544;48.836;9.174;2022-12-15T00:38:36;45.85;;;25.42;;
48751;SDS011;34544;48.836;9.174;2022-12-15T00:41:12;47.38;;;26.27;;
48751;SDS011;34544;48.836;9.174;2022-12-15T00:43:39;45.72;;;26.17;;
48751;SDS011;34544;48.836;9.174;2022-12-15T00:46:05;45.00;;;27.58;;
48751;SDS011;34544;48.836;9.174;2022-12-15T00:48:50;53.53;;;26.65;;
48751;SDS011;34544;48.836;9.174;2022-12-15T00:51:16;40.78;;;25.65;;
48751;SDS011;34544;48.836;9.174;2022-12-15T00:53:42;43.33;;;26.02;;
48751;SDS011;34544;48.836;9.174;2022-12-15T00:56:26;48.65;;;27.10;;
48751;SDS011;34544;48.836;9.174;2022-12-15T00:59:11;47.28;;;27.10;;
48751;SDS011;34544;48.836;9.174;2022-12-15T01:01:56;47.13;;;25.77;;
48751;SDS011;34544;48.836;9.174;2022-12-15T01:04:40;49.80;;;28.40;;
48751;SDS011;34544;48.836;9.174;2022-12-15T01:07:24;43.65;;;26.00;;
48751;SDS011;34544;48.836;9.174;2022-12-15T01:10:09;44.75;;;26.20;;
48751;SDS011;34544;48.836;9.174;2022-12-15T01:12:53;47.65;;;26.23;;
48751;SDS011;34544;48.836;9.174;2022-12-15T01:15:38;49.42;;;26.67;;
48751;SDS011;34544;48.836;9.174;2022-12-15T01:18:22;46.67;;;26.45;;
48751;SDS011;34544;48.836;9.174;2022-12-15T01:21:07;50.33;;;27.48;;
48751;SDS011;34544;48.836;9.174;2022-12-15T01:23:34;58.70;;;29.02;;
48751;SDS011;34544;48.836;9.174;2022-12-15T01:26:02;51.75;;;26.80;;
48751;SDS011;34544;48.836;9.174;2022-12-15T01:28:29;51.60;;;27.52;;
48751;SDS011;34544;48.836;9.174;2022-12-15T01:30:54;48.00;;;25.95;;
48751;SDS011;34544;48.836;9.174;2022-12-15T01:33:20;49.80;;;26.35;;
48751;SDS011;34544;48.836;9.174;2022-12-15T01:35:56;51.92;;;28.67;;
48751;SDS011;34544;48.836;9.174;2022-12-15T01:38:23;44.72;;;24.98;;
48751;SDS011;34544;48.836;9.174;2022-12-15T01:40:51;48.47;;;28.23;;
48751;SDS011;34544;48.836;9.174;2022-12-15T01:43:26;46.17;;;26.08;;
48751;SDS011;34544;48.836;9.174;2022-12-15T01:45:55;47.22;;;28.80;;
48751;SDS011;34544;48.836;9.174;2022-12-15T01:48:58;44.58;;;26.35;;
48751;SDS011;34544;48.836;9.174;2022-12-15T01:51:35;45.80;;;25.75;;
48751;SDS011;34544;48.836;9.174;2022-12-15T01:54:15;48.33;;;27.85;;
48751;SDS011;34544;48.836;9.174;2022-12-15T01:56:49;42.27;;;25.23;;
48751;SDS011;34544;48.836;9.174;2022-12-15T01:59:23;46.67;;;26.45;;
48751;SDS011;34544;48.836;9.174;2022-12-15T02:01:53;46.63;;;25.98;;
48751;SDS011;34544;48.836;9.174;2022-12-15T02:04:19;49.67;;;27.02;;
48751;SDS011;34544;48.836;9.174;2022-12-15T02:06:46;44.33;;;26.37;;
48751;SDS011;34544;48.836;9.174;2022-12-15T02:09:12;48.30;;;26.45;;
48751;SDS011;34544;48.836;9.174;2022-12-15T02:17:13;50.97;;;27.02;;
48751;SDS011;34544;48.836;9.174;2022-12-15T02:22:43;46.53;;;26.70;;
48751;SDS011;34544;48.836;9.174;2022-12-15T02:31:10;54.92;;;26.67;;
48751;SDS011;34544;48.836;9.174;2022-12-15T02:34:43;46.75;;;24.55;;
48751;SDS011;34544;48.836;9.174;2022-12-15T02:37:08;51.78;;;26.02;;
48751;SDS011;34544;48.836;9.174;2022-12-15T02:39:42;46.97;;;25.90;;
48751;SDS011;34544;48.836;9.174;2022-12-15T02:42:08;46.30;;;24.55;;
48751;SDS011;34544;48.836;9.174;2022-12-15T02:53:27;44.97;;;24.85;;
48751;SDS011;34544;48.836;9.174;2022-12-15T02:58:24;48.65;;;26.58;;
48751;SDS011;34544;48.836;9.174;2022-12-15T03:01:00;46.47;;;25.95;;
48751;SDS011;34544;48.836;9.174;2022-12-15T03:03:33;46.70;;;26.23;;
48751;SDS011;34544;48.836;9.174;2022-12-15T03:05:59;52.60;;;28.15;;
48751;SDS011;34544;48.836;9.174;2022-12-15T03:08:26;53.78;;;26.90;;
48751;SDS011;34544;48.836;9.174;2022-12-15T03:10:54;45.90;;;25.02;;
48751;SDS011;34544;48.836;9.174;2022-12-15T03:13:22;48.33;;;27.85;;
48751;SDS011;34544;48.836;9.174;2022-12-15T03:15:48;49.15;;;26.05;;
48751;SDS011;34544;48.836;9.174;2022-12-15T03:18:15;42.47;;;24.88;;
48751;SDS011;34544;48.836;9.174;2022-12-15T03:20:41;51.92;;;26.15;;
48751;SDS011;34544;48.836;9.174;2022-12-15T03:23:06;50.05;;;27.00;;
48751;SDS011;34544;48.836;9.174;2022-12-15T03:25:32;50.70;;;26.50;;
48751;SDS011;34544;48.836;9.174;2022-12-15T03:27:58;52.42;;;25.88;;
48751;SDS011;34544;48.836;9.174;2022-12-15T03:30:23;50.83;;;27.00;;
48751;SDS011;34544;48.836;9.174;2022-12-15T03:32:49;50.58;;;26.67;;
48751;SDS011;34544;48.836;9.174;2022-12-15T03:35:14;47.72;;;28.23;;
48751;SDS011;34544;48.836;9.174;2022-12-15T03:37:40;50.50;;;27.83;;
48751;SDS011;34544;48.836;9.174;2022-12-15T03:40:07;49.75;;;27.20;;
48751;SDS011;34544;48.836;9.174;2022-12-15T03:42:33;50.17;;;26.52;;
48751;SDS011;34544;48.836;9.174;2022-12-15T03:45:18;49.60;;;26.30;;
48751;SDS011;34544;48.836;9.174;2022-12-15T03:47:46;48.58;;;27.45;;
48751;SDS011;34544;48.836;9.174;2022-12-15T03:50:13;47.78;;;25.17;;
48751;SDS011;34544;48.836;9.174;2022-12-15T03:52:41;45.30;;;26.92;;
48751;SDS011;34544;48.836;9.174;2022-12-15T03:55:07;51.78;;;25.90;;
48751;SDS011;34544;48.836;9.174;2022-12-15T03:57:34;46.58;;;26.63;;
48751;SDS011;34544;48.836;9.174;2022-12-15T04:00:00;56.03;;;27.00;;
48751;SDS011;34544;48.836;9.174;2022-12-15T04:02:26;55.60;;;27.10;;
48751;SDS011;34544;48.836;9.174;2022-12-15T04:04:52;48.67;;;26.80;;
48751;SDS011;34544;48.836;9.174;2022-12-15T04:07:18;43.10;;;23.85;;
48751;SDS011;34544;48.836;9.174;2022-12-15T04:09:43;51.25;;;26.58;;
48751;SDS011;34544;48.836;9.174;2022-12-15T04:12:10;59.63;;;29.63;;
48751;SDS011;34544;48.836;9.174;2022-12-15T04:14:36;48.80;;;26.50;;
48751;SDS011;34544;48.836;9.174;2022-12-15T04:17:09;50.78;;;28.10;;
48751;SDS011;34544;48.836;9.174;2022-12-15T04:19:36;51.78;;;27.08;;
48751;SDS011;34544;48.836;9.174;2022-12-15T04:22:21;47.28;;;26.38;;
48751;SDS011;34544;48.836;9.174;2022-12-15T04:24:47;53.60;;;28.13;;
48751;SDS011;34544;48.836;9.174;2022-12-15T04:27:31;46.33;;;26.00;;
48751;SDS011;34544;48.836;9.174;2022-12-15T04:30:16;49.97;;;27.38;;
48751;SDS011;34544;48.836;9.174;2022-12-15T04:33:00;57.33;;;27.38;;
48751;SDS011;34544;48.836;9.174;2022-12-15T04:35:46;50.63;;;26.15;;
48751;SDS011;34544;48.836;9.174;2022-12-15T04:38:31;53.08;;;27.70;;
48751;SDS011;34544;48.836;9.174;2022-12-15T04:41:16;51.33;;;26.02;;
48751;SDS011;34544;48.836;9.174;2022-12-15T04:44:03;51.78;;;26.02;;
48751;SDS011;34544;48.836;9.174;2022-12-15T04:46:48;48.85;;;26.77;;
48751;SDS011;34544;48.836;9.174;2022-12-15T04:49:32;54.03;;;28.55;;
48751;SDS011;34544;48.836;9.174;2022-12-15T04:52:17;53.35;;;27.35;;
48751;SDS011;34544;48.836;9.174;2022-12-15T04:55:01;53.35;;;27.88;;
48751;SDS011;34544;48.836;9.174;2022-12-15T04:57:46;49.15;;;27.38;;
48751;SDS011;34544;48.836;9.174;2022-12-15T05:00:30;57.53;;;30.70;;
48751;SDS011;34544;48.836;9.174;2022-12-15T05:03:14;63.15;;;31.85;;
48751;SDS011;34544;48.836;9.174;2022-12-15T05:05:58;72.93;;;37.55;;
48751;SDS011;34544;48.836;9.174;2022-12-15T05:08:43;65.85;;;33.05;;
48751;SDS011;34544;48.836;9.174;2022-12-15T05:11:27;49.08;;;26.75;;
48751;SDS011;34544;48.836;9.174;2022-12-15T05:14:11;49.95;;;25.15;;
48751;SDS011;34544;48.836;9.174;2022-12-15T05:16:56;51.20;;;28.63;;
48751;SDS011;34544;48.836;9.174;2022-12-15T05:19:40;58.45;;;27.65;;
48751;SDS011;34544;48.836;9.174;2022-12-15T05:22:24;52.07;;;25.90;;
48751;SDS011;34544;48.836;9.174;2022-12-15T05:25:08;55.53;;;26.42;;
48751;SDS011;34544;48.836;9.174;2022-12-15T05:27:53;48.70;;;26.33;;
48751;SDS011;34544;48.836;9.174;2022-12-15T05:30:37;54.78;;;27.40;;
48751;SDS011;34544;48.836;9.174;2022-12-15T05:33:22;48.10;;;25.95;;
48751;SDS011;34544;48.836;9.174;2022-12-15T05:35:47;55.03;;;26.83;;
48751;SDS011;34544;48.836;9.174;2022-12-15T05:38:14;49.10;;;27.60;;
48751;SDS011;34544;48.836;9.174;2022-12-15T05:40:40;49.25;;;25.55;;
48751;SDS011;34544;48.836;9.174;2022-12-15T05:43:06;53.70;;;28.60;;
48751;SDS011;34544;48.836;9.174;2022-12-15T05:45:32;48.30;;;25.55;;
48751;SDS011;34544;48.836;9.174;2022-12-15T05:47:57;55.30;;;27.38;;
48751;SDS011;34544;48.836;9.174;2022-12-15T05:50:23;52.80;;;26.15;;
48751;SDS011;34544;48.836;9.174;2022-12-15T05:52:49;53.55;;;25.75;;
48751;SDS011;34544;48.836;9.174;2022-12-15T05:55:15;51.78;;;28.35;;
48751;SDS011;34544;48.836;9.174;2022-12-15T05:57:41;47.33;;;26.65;;
48751;SDS011;34544;48.836;9.174;2022-12-15T06:00:07;49.38;;;26.45;;
48751;SDS011;34544;48.836;9.174;2022-12-15T06:02:36;51.03;;;25.75;;
48751;SDS011;34544;48.836;9.174;2022-12-15T06:05:02;48.67;;;26.85;;
48751;SDS011;34544;48.836;9.174;2022-12-15T06:07:28;47.03;;;25.23;;
48751;SDS011;34544;48.836;9.174;2022-12-15T06:09:54;50.88;;;25.85;;
48751;SDS011;34544;48.836;9.174;2022-12-15T06:12:19;49.00;;;27.92;;
48751;SDS011;34544;48.836;9.174;2022-12-15T06:14:45;51.85;;;26.60;;
48751;SDS011;34544;48.836;9.174;2022-12-15T06:17:11;56.72;;;29.52;;
48751;SDS011;34544;48.836;9.174;2022-12-15T06:19:37;52.00;;;25.98;;
48751;SDS011;34544;48.836;9.174;2022-12-15T06:22:03;50.92;;;27.90;;
48751;SDS011;34544;48.836;9.174;2022-12-15T06:24:29;52.03;;;27.65;;
48751;SDS011;34544;48.836;9.174;2022-12-15T06:26:55;49.72;;;26.40;;
48751;SDS011;34544;48.836;9.174;2022-12-15T06:29:20;51.83;;;24.63;;
48751;SDS011;34544;48.836;9.174;2022-12-15T06:31:46;48.28;;;25.90;;
48751;SDS011;34544;48.836;9.174;2022-12-15T06:34:12;42.65;;;25.45;;
48751;SDS011;34544;48.836;9.174;2022-12-15T06:36:39;55.38;;;27.75;;
48751;SDS011;34544;48.836;9.174;2022-12-15T06:39:06;52.42;;;28.17;;
48751;SDS011;34544;48.836;9.174;2022-12-15T06:41:34;56.90;;;27.50;;
48751;SDS011;34544;48.836;9.174;2022-12-15T06:44:00;53.30;;;27.58;;
48751;SDS011;34544;48.836;9.174;2022-12-15T06:46:26;44.70;;;24.40;;
48751;SDS011;34544;48.836;9.174;2022-12-15T06:48:53;58.22;;;26.23;;
48751;SDS011;34544;48.836;9.174;2022-12-15T06:51:19;55.50;;;27.10;;
48751;SDS011;34544;48.836;9.174;2022-12-15T06:53:45;64.57;;;28.92;;
48751;SDS011;34544;48.836;9.174;2022-12-15T06:56:16;49.38;;;25.30;;
48751;SDS011;34544;48.836;9.174;2022-12-15T06:58:45;55.50;;;28.52;;
48751;SDS011;34544;48.836;9.174;2022-12-15T07:01:15;50.25;;;27.40;;
48751;SDS011;34544;48.836;9.174;2022-12-15T07:03:42;47.22;;;26.15;;
48751;SDS011;34544;48.836;9.174;2022-12-15T07:06:09;56.80;;;28.27;;
48751;SDS011;34544;48.836;9.174;2022-12-15T07:08:36;54.22;;;28.15;;
48751;SDS011;34544;48.836;9.174;2022-12-15T07:11:02;52.72;;;27.40;;
48751;SDS011;34544;48.836;9.174;2022-12-15T07:13:30;55.83;;;28.48;;
48751;SDS011;34544;48.836;9.174;2022-12-15T07:16:02;48.20;;;25.23;;
48751;SDS011;34544;48.836;9.174;2022-12-15T07:18:30;47.90;;;26.63;;
48751;SDS011;34544;48.836;9.174;2022-12-15T07:20:56;60.72;;;28.77;;
48751;SDS011;34544;48.836;9.174;2022-12-15T07:23:30;54.78;;;28.30;;
48751;SDS011;34544;48.836;9.174;2022-12-15T07:25:56;53.47;;;28.20;;
48751;SDS011;34544;48.836;9.174;2022-12-15T07:28:21;50.15;;;26.73;;
48751;SDS011;34544;48.836;9.174;2022-12-15T07:30:47;55.13;;;26.50;;
48751;SDS011;34544;48.836;9.174;2022-12-15T07:33:13;52.15;;;26.75;;
48751;SDS011;34544;48.836;9.174;2022-12-15T07:35:40;55.63;;;28.90;;
48751;SDS011;34544;48.836;9.174;2022-12-15T07:38:05;51.72;;;27.17;;
48751;SDS011;34544;48.836;9.174;2022-12-15T07:40:32;54.40;;;28.77;;
48751;SDS011;34544;48.836;9.174;2022-12-15T07:42:58;45.40;;;25.70;;
48751;SDS011;34544;48.836;9.174;2022-12-15T07:45:24;54.05;;;28.70;;
48751;SDS011;34544;48.836;9.174;2022-12-15T07:47:49;57.65;;;27.90;;
48751;SDS011;34544;48.836;9.174;2022-12-15T07:50:16;46.72;;;26.77;;
48751;SDS011;34544;48.836;9.174;2022-12-15T07:52:42;50.25;;;27.90;;
48751;SDS011;34544;48.836;9.174;2022-12-15T07:55:09;50.63;;;26.98;;
48751;SDS011;34544;48.836;9.174;2022-12-15T07:57:34;50.95;;;26.75;;
48751;SDS011;34544;48.836;9.174;2022-12-15T08:00:00;45.83;;;24.58;;
48751;SDS011;34544;48.836;9.174;2022-12-15T08:02:36;54.28;;;27.20;;
48751;SDS011;34544;48.836;9.174;2022-12-15T08:05:04;48.55;;;25.65;;
48751;SDS011;34544;48.836;9.174;2022-12-15T08:07:30;47.42;;;24.83;;
48751;SDS011;34544;48.836;9.174;2022-12-15T08:09:56;49.63;;;27.05;;
48751;SDS011;34544;48.836;9.174;2022-12-15T08:12:21;40.08;;;23.63;;
48751;SDS011;34544;48.836;9.174;2022-12-15T08:14:47;47.40;;;25.52;;
48751;SDS011;34544;48.836;9.174;2022-12-15T08:17:13;51.92;;;24.52;;
48751;SDS011;34544;48.836;9.174;2022-12-15T08:19:38;49.40;;;26.48;;
48751;SDS011;34544;48.836;9.174;2022-12-15T08:22:04;48.97;;;27.02;;
48751;SDS011;34544;48.836;9.174;2022-12-15T08:24:30;51.72;;;26.40;;
48751;SDS011;34544;48.836;9.174;2022-12-15T08:26:55;51.45;;;26.15;;
48751;SDS011;34544;48.836;9.174;2022-12-15T08:29:21;49.15;;;24.35;;
48751;SDS011;34544;48.836;9.174;2022-12-15T08:31:46;47.30;;;24.05;;
48751;SDS011;34544;48.836;9.174;2022-12-15T08:34:12;45.05;;;23.75;;
48751;SDS011;34544;48.836;9.174;2022-12-15T08:36:38;45.05;;;24.15;;
48751;SDS011;34544;48.836;9.174;2022-12-15T08:39:03;48.08;;;22.52;;
48751;SDS011;34544;48.836;9.174;2022-12-15T08:41:30;47.47;;;23.45;;
48751;SDS011;34544;48.836;9.174;2022-12-15T08:43:57;50.47;;;25.52;;
48751;SDS011;34544;48.836;9.174;2022-12-15T08:46:27;53.58;;;25.75;;
48751;SDS011;34544;48.836;9.174;2022-12-15T08:48:56;44.35;;;24.20;;
48751;SDS011;34544;48.836;9.174;2022-12-15T08:51:22;46.00;;;23.73;;
48751;SDS011;34544;48.836;9.174;2022-12-15T08:53:49;40.75;;;21.80;;
48751;SDS011;34544;48.836;9.174;2022-12-15T08:56:17;49.97;;;24.55;;
48751;SDS011;34544;48.836;9.174;2022-12-15T08:58:44;45.50;;;23.15;;
48751;SDS011;34544;48.836;9.174;2022-12-15T09:01:15;45.38;;;22.58;;
48751;SDS011;34544;48.836;9.174;2022-12-15T09:03:43;46.30;;;23.88;;
48751;SDS011;34544;48.836;9.174;2022-12-15T09:06:12;48.53;;;24.17;;
48751;SDS011;34544;48.836;9.174;2022-12-15T09:08:40;46.40;;;21.80;;
48751;SDS011;34544;48.836;9.174;2022-12-15T09:11:06;40.72;;;23.75;;
48751;SDS011;34544;48.836;9.174;2022-12-15T09:13:32;42.33;;;22.02;;
48751;SDS011;34544;48.836;9.174;2022-12-15T09:15:59;45.03;;;23.60;;
48751;SDS011;34544;48.836;9.174;2022-12-15T09:18:32;46.75;;;23.70;;
48751;SDS011;34544;48.836;9.174;2022-12-15T09:21:02;48.17;;;23.10;;
48751;SDS011;34544;48.836;9.174;2022-12-15T09:23:30;46.33;;;23.03;;
48751;SDS011;34544;48.836;9.174;2022-12-15T09:26:02;48.10;;;24.98;;
48751;SDS011;34544;48.836;9.174;2022-12-15T09:28:30;42.90;;;22.85;;
48751;SDS011;34544;48.836;9.174;2022-12-15T09:31:02;40.72;;;23.33;;
48751;SDS011;34544;48.836;9.174;2022-12-15T09:33:29;43.33;;;23.45;;
48751;SDS011;34544;48.836;9.174;2022-12-15T09:35:55;43.45;;;22.73;;
48751;SDS011;34544;48.836;9.174;2022-12-15T09:38:21;42.38;;;23.58;;
48751;SDS011;34544;48.836;9.174;2022-12-15T09:40:46;49.03;;;23.70;;
48751;SDS011;34544;48.836;9.174;2022-12-15T09:43:14;45.25;;;23.55;;
48751;SDS011;34544;48.836;9.174;2022-12-15T09:45:48;43.22;;;23.05;;
48751;SDS011;34544;48.836;9.174;2022-12-15T09:48:18;40.50;;;23.17;;
48751;SDS011;34544;48.836;9.174;2022-12-15T09:50:46;42.40;;;23.27;;
48751;SDS011;34544;48.836;9.174;2022-12-15T09:53:15;42.10;;;22.77;;
48751;SDS011;34544;48.836;9.174;2022-12-15T09:55:45;44.03;;;24.13;;
48751;SDS011;34544;48.836;9.174;2022-12-15T09:58:18;42.03;;;21.70;;
48751;SDS011;34544;48.836;9.174;2022-12-15T10:01:17;41.78;;;22.42;;
48751;SDS011;34544;48.836;9.174;2022-12-15T10:03:58;42.83;;;23.02;;
48751;SDS011;34544;48.836;9.174;2022-12-15T10:06:28;42.78;;;22.27;;
48751;SDS011;34544;48.836;9.174;2022-12-15T10:09:15;41.50;;;22.90;;
48751;SDS011;34544;48.836;9.174;2022-12-15T10:11:50;41.20;;;21.45;;
48751;SDS011;34544;48.836;9.174;2022-12-15T10:17:23;43.40;;;22.42;;
48751;SDS011;34544;48.836;9.174;2022-12-15T10:20:12;41.50;;;21.10;;
48751;SDS011;34544;48.836;9.174;2022-12-15T10:22:48;38.00;;;20.92;;
48751;SDS011;34544;48.836;9.174;2022-12-15T10:25:19;45.55;;;22.95;;
48751;SDS011;34544;48.836;9.174;2022-12-15T10:30:19;43.33;;;23.02;;
48751;SDS011;34544;48.836;9.174;2022-12-15T10:35:27;40.42;;;22.02;;
48751;SDS011;34544;48.836;9.174;2022-12-15T10:37:59;40.83;;;22.70;;
48751;SDS011;34544;48.836;9.174;2022-12-15T10:43:20;42.17;;;22.35;;
48751;SDS011;34544;48.836;9.174;2022-12-15T10:46:01;42.15;;;22.48;;
48751;SDS011;34544;48.836;9.174;2022-12-15T10:48:48;41.58;;;21.52;;
48751;SDS011;34544;48.836;9.174;2022-12-15T10:54:03;41.13;;;22.40;;
48751;SDS011;34544;48.836;9.174;2022-12-15T10:56:30;43.00;;;22.27;;
48751;SDS011;34544;48.836;9.174;2022-12-15T10:58:58;40.72;;;21.00;;
48751;SDS011;34544;48.836;9.174;2022-12-15T11:01:27;44.55;;;23.70;;
48751;SDS011;34544;48.836;9.174;2022-12-15T11:03:55;36.30;;;21.33;;
48751;SDS011;34544;48.836;9.174;2022-12-15T11:06:28;46.65;;;22.98;;
48751;SDS011;34544;48.836;9.174;2022-12-15T11:09:23;40.47;;;23.63;;
48751;SDS011;34544;48.836;9.174;2022-12-15T11:11:58;42.83;;;23.27;;
48751;SDS011;34544;48.836;9.174;2022-12-15T11:14:49;43.53;;;21.80;;
48751;SDS011;34544;48.836;9.174;2022-12-15T11:17:16;39.70;;;22.13;;
48751;SDS011;34544;48.836;9.174;2022-12-15T11:19:54;43.67;;;22.98;;
48751;SDS011;34544;48.836;9.174;2022-12-15T11:25:19;38.05;;;23.30;;
48751;SDS011;34544;48.836;9.174;2022-12-15T11:27:58;41.47;;;24.50;;
48751;SDS011;34544;48.836;9.174;2022-12-15T11:30:30;45.08;;;23.67;;
48751;SDS011;34544;48.836;9.174;2022-12-15T11:32:59;37.97;;;21.70;;
48751;SDS011;34544;48.836;9.174;2022-12-15T11:35:31;41.33;;;24.67;;
48751;SDS011;34544;48.836;9.174;2022-12-15T11:38:25;38.42;;;21.77;;
48751;SDS011;34544;48.836;9.174;2022-12-15T11:41:04;37.83;;;22.73;;
48751;SDS011;34544;48.836;9.174;2022-12-15T11:44:01;40.20;;;20.85;;
48751;SDS011;34544;48.836;9.174;2022-12-15T11:47:16;37.95;;;22.30;;
48751;SDS011;34544;48.836;9.174;2022-12-15T11:49:59;42.30;;;23.13;;
48751;SDS011;34544;48.836;9.174;2022-12-15T11:55:38;40.72;;;22.02;;
48751;SDS011;34544;48.836;9.174;2022-12-15T11:58:23;39.78;;;23.20;;
48751;SDS011;34544;48.836;9.174;2022-12-15T12:03:44;40.55;;;22.17;;
48751;SDS011;34544;48.836;9.174;2022-12-15T12:06:25;42.38;;;21.83;;
48751;SDS011;34544;48.836;9.174;2022-12-15T12:12:17;38.58;;;22.13;;
48751;SDS011;34544;48.836;9.174;2022-12-15T12:14:50;38.72;;;22.13;;
48751;SDS011;34544;48.836;9.174;2022-12-15T12:20:17;39.05;;;22.67;;
48751;SDS011;34544;48.836;9.174;2022-12-15T12:23:13;38.80;;;20.50;;
48751;SDS011;34544;48.836;9.174;2022-12-15T12:28:46;37.33;;;21.02;;
48751;SDS011;34544;48.836;9.174;2022-12-15T12:34:18;36.97;;;21.20;;
48751;SDS011;34544;48.836;9.174;2022-12-15T12:36:50;37.67;;;20.02;;
48751;SDS011;34544;48.836;9.174;2022-12-15T12:39:19;37.17;;;23.05;;
48751;SDS011;34544;48.836;9.174;2022-12-15T12:41:50;37.42;;;22.02;;
48751;SDS011;34544;48.836;9.174;2022-12-15T12:44:34;36.95;;;20.42;;
48751;SDS011;34544;48.836;9.174;2022-12-15T12:49:47;32.20;;;20.00;;
48751;SDS011;34544;48.836;9.174;2022-12-15T12:52:18;35.78;;;21.08;;
48751;SDS011;34544;48.836;9.174;2022-12-15T12:55:01;34.60;;;20.52;;
48751;SDS011;34544;48.836;9.174;2022-12-15T12:57:48;29.85;;;19.67;;
48751;SDS011;34544;48.836;9.174;2022-12-15T13:02:54;43.00;;;22.13;;
48751;SDS011;34544;48.836;9.174;2022-12-15T13:05:36;39.60;;;23.85;;
48751;SDS011;34544;48.836;9.174;2022-12-15T13:10:43;45.20;;;23.35;;
48751;SDS011;34544;48.836;9.174;2022-12-15T13:16:10;34.30;;;20.77;;
48751;SDS011;34544;48.836;9.174;2022-12-15T13:24:25;33.42;;;20.65;;
48751;SDS011;34544;48.836;9.174;2022-12-15T13:26:52;39.88;;;20.70;;
48751;SDS011;34544;48.836;9.174;2022-12-15T13:29:27;31.25;;;19.55;;
48751;SDS011;34544;48.836;9.174;2022-12-15T13:31:53;35.28;;;19.88;;
48751;SDS011;34544;48.836;9.174;2022-12-15T13:34:19;41.10;;;20.80;;
48751;SDS011;34544;48.836;9.174;2022-12-15T13:36:48;38.15;;;21.33;;
48751;SDS011;34544;48.836;9.174;2022-12-15T13:44:27;36.03;;;19.02;;
48751;SDS011;34544;48.836;9.174;2022-12-15T13:49:47;42.08;;;20.95;;
48751;SDS011;34544;48.836;9.174;2022-12-15T13:54:51;42.67;;;21.58;;
48751;SDS011;34544;48.836;9.174;2022-12-15T13:57:23;37.15;;;20.67;;
48751;SDS011;34544;48.836;9.174;2022-12-15T13:59:56;36.95;;;21.20;;
48751;SDS011;34544;48.836;9.174;2022-12-15T14:02:37;34.92;;;21.83;;
48751;SDS011;34544;48.836;9.174;2022-12-15T14:05:13;38.30;;;21.35;;
48751;SDS011;34544;48.836;9.174;2022-12-15T14:10:21;39.67;;;20.85;;
48751;SDS011;34544;48.836;9.174;2022-12-15T14:13:24;36.33;;;19.98;;
48751;SDS011;34544;48.836;9.174;2022-12-15T14:18:28;36.10;;;20.65;;
48751;SDS011;34544;48.836;9.174;2022-12-15T14:21:05;39.90;;;20.60;;
48751;SDS011;34544;48.836;9.174;2022-12-15T14:23:39;40.13;;;20.20;;
48751;SDS011;34544;48.836;9.174;2022-12-15T14:26:08;35.53;;;19.80;;
48751;SDS011;34544;48.836;9.174;2022-12-15T14:28:37;40.95;;;20.80;;
48751;SDS011;34544;48.836;9.174;2022-12-15T14:31:16;35.40;;;20.42;;
48751;SDS011;34544;48.836;9.174;2022-12-15T14:33:47;38.95;;;21.58;;
48751;SDS011;34544;48.836;9.174;2022-12-15T14:36:16;38.80;;;20.80;;
48751;SDS011;34544;48.836;9.174;2022-12-15T14:39:01;33.92;;;21.02;;
48751;SDS011;34544;48.836;9.174;2022-12-15T14:41:39;40.13;;;20.42;;
48751;SDS011;34544;48.836;9.174;2022-12-15T14:46:53;34.72;;;19.65;;
48751;SDS011;34544;48.836;9.174;2022-12-15T14:49:20;39.65;;;19.13;;
48751;SDS011;34544;48.836;9.174;2022-12-15T14:51:50;36.65;;;19.10;;
48751;SDS011;34544;48.836;9.174;2022-12-15T14:54:28;34.30;;;20.20;;
48751;SDS011;34544;48.836;9.174;2022-12-15T14:57:17;35.20;;;20.33;;
48751;SDS011;34544;48.836;9.174;2022-12-15T14:59:48;36.55;;;19.50;;
48751;SDS011;34544;48.836;9.174;2022-12-15T15:02:19;35.50;;;20.75;;
48751;SDS011;34544;48.836;9.174;2022-12-15T15:04:59;38.83;;;22.00;;
48751;SDS011;34544;48.836;9.174;2022-12-15T15:07:32;30.10;;;18.77;;
48751;SDS011;34544;48.836;9.174;2022-12-15T15:10:02;34.92;;;18.02;;
48751;SDS011;34544;48.836;9.174;2022-12-15T15:12:44;34.40;;;17.27;;
48751;SDS011;34544;48.836;9.174;2022-12-15T15:15:16;32.83;;;19.02;;
48751;SDS011;34544;48.836;9.174;2022-12-15T15:17:47;39.23;;;19.27;;
48751;SDS011;34544;48.836;9.174;2022-12-15T15:30:45;34.22;;;17.83;;
48751;SDS011;34544;48.836;9.174;2022-12-15T15:33:11;32.55;;;18.50;;
48751;SDS011;34544;48.836;9.174;2022-12-15T15:35:38;29.58;;;18.08;;
48751;SDS011;34544;48.836;9.174;2022-12-15T15:40:54;31.92;;;15.77;;
48751;SDS011;34544;48.836;9.174;2022-12-15T15:43:25;31.30;;;16.40;;
48751;SDS011;34544;48.836;9.174;2022-12-15T15:45:59;34.53;;;18.02;;
48751;SDS011;34544;48.836;9.174;2022-12-15T15:48:31;27.67;;;15.82;;
48751;SDS011;34544;48.836;9.174;2022-12-15T15:51:02;31.35;;;17.73;;
48751;SDS011;34544;48.836;9.174;2022-12-15T15:53:34;33.05;;;16.38;;
48751;SDS011;34544;48.836;9.174;2022-12-15T15:56:04;29.77;;;16.92;;
48751;SDS011;34544;48.836;9.174;2022-12-15T15:58:33;26.38;;;14.70;;
48751;SDS011;34544;48.836;9.174;2022-12-15T16:01:00;27.60;;;15.70;;
48751;SDS011;34544;48.836;9.174;2022-12-15T16:03:29;30.63;;;16.48;;
48751;SDS011;34544;48.836;9.174;2022-12-15T16:05:54;28.75;;;16.38;;
48751;SDS011;34544;48.836;9.174;2022-12-15T16:08:22;30.73;;;15.40;;
48751;SDS011;34544;48.836;9.174;2022-12-15T16:10:51;27.33;;;13.95;;
48751;SDS011;34544;48.836;9.174;2022-12-15T16:13:18;22.65;;;13.82;;
48751;SDS011;34544;48.836;9.174;2022-12-15T16:15:45;26.92;;;16.20;;
48751;SDS011;34544;48.836;9.174;2022-12-15T16:18:11;27.77;;;15.18;;
48751;SDS011;34544;48.836;9.174;2022-12-15T16:20:36;29.35;;;15.30;;
48751;SDS011;34544;48.836;9.174;2022-12-15T16:23:10;28.48;;;14.93;;
48751;SDS011;34544;48.836;9.174;2022-12-15T16:25:42;27.60;;;15.40;;
48751;SDS011;34544;48.836;9.174;2022-12-15T16:28:14;27.27;;;15.40;;
48751;SDS011;34544;48.836;9.174;2022-12-15T16:30:42;28.92;;;17.42;;
48751;SDS011;34544;48.836;9.174;2022-12-15T16:33:08;31.45;;;15.88;;
48751;SDS011;34544;48.836;9.174;2022-12-15T16:35:35;30.08;;;14.88;;
48751;SDS011;34544;48.836;9.174;2022-12-15T16:38:02;30.80;;;15.30;;
48751;SDS011;34544;48.836;9.174;2022-12-15T16:40:29;23.42;;;13.43;;